Time;durP1;ratioP1;P1;durP2;ratioP2;P2;SDS_P1;SDS_P2;PMS_P1;PMS_P2;Temp;Humidity;BMP_temperature;BMP_pressure;BME280_temperature;BME280_humidity;BME280_pressure;Samples;Min_cycle;Max_cycle;Signal;HPM_P1;HPM_P2
2024/02/10 00:00:20;;;;;;;4.13;3.43;;;8.60;99.90;;;;;;2059047;28;20189;-67
2024/02/10 00:01:24;;;;;;;5.82;4.22;;;8.60;99.90;;;;;;2061977;28;20241;-67
2024/02/10 00:02:26;;;;;;;6.47;4.78;;;8.60;99.90;;;;;;2059472;28;20333;-67
2024/02/10 00:03:29;;;;;;;5.50;4.40;;;8.60;99.90;;;;;;2060366;28;20690;-67
2024/02/10 00:04:30;;;;;;;5.10;4.43;;;8.60;99.90;;;;;;2052588;28;20233;-67
2024/02/10 00:05:31;;;;;;;4.20;3.23;;;8.50;99.90;;;;;;2051598;28;20269;-67
2024/02/10 00:06:36;;;;;;;4.80;4.00;;;8.50;99.90;;;;;;2061510;28;20229;-66
2024/02/10 00:07:37;;;;;;;6.03;4.20;;;8.60;99.90;;;;;;2058636;28;20245;-65
2024/02/10 00:08:39;;;;;;;5.10;4.45;;;8.60;99.90;;;;;;2059715;28;20230;-65
2024/02/10 00:09:41;;;;;;;5.40;4.00;;;8.60;99.90;;;;;;2060234;28;20237;-67
2024/02/10 00:10:41;;;;;;;4.88;3.55;;;8.60;99.90;;;;;;2061281;28;20234;-67
2024/02/10 00:11:43;;;;;;;7.13;4.70;;;8.60;99.90;;;;;;2061933;28;20650;-67
2024/02/10 00:12:45;;;;;;;5.55;4.05;;;8.50;99.90;;;;;;2061638;28;20234;-67
2024/02/10 00:13:45;;;;;;;5.13;4.15;;;8.50;99.90;;;;;;2060251;28;20222;-66
2024/02/10 00:14:46;;;;;;;7.97;4.93;;;8.50;99.90;;;;;;2061553;28;20237;-67
2024/02/10 00:15:49;;;;;;;6.40;5.10;;;8.50;99.90;;;;;;2052086;28;20231;-67
2024/02/10 00:16:53;;;;;;;6.68;4.50;;;8.50;99.90;;;;;;2060962;28;20233;-67
2024/02/10 00:17:54;;;;;;;5.72;4.75;;;8.50;99.90;;;;;;2060810;28;20254;-67
2024/02/10 00:18:57;;;;;;;6.43;4.67;;;8.50;99.90;;;;;;2051531;28;20306;-67
2024/02/10 00:19:59;;;;;;;5.40;4.43;;;8.50;99.90;;;;;;2044546;28;20711;-68
2024/02/10 00:21:00;;;;;;;5.80;4.07;;;8.50;99.90;;;;;;2060469;28;20237;-67
2024/02/10 00:22:00;;;;;;;4.73;4.23;;;8.50;99.90;;;;;;2061669;28;20258;-67
2024/02/10 00:23:04;;;;;;;7.77;4.70;;;8.50;99.90;;;;;;2061869;28;20210;-67
2024/02/10 00:24:05;;;;;;;5.15;4.25;;;8.60;99.90;;;;;;2060582;28;20183;-66
2024/02/10 00:25:06;;;;;;;8.50;5.28;;;8.60;99.90;;;;;;2060033;28;20179;-67
2024/02/10 00:26:07;;;;;;;7.05;5.28;;;8.50;99.90;;;;;;2062625;28;20189;-67
2024/02/10 00:27:08;;;;;;;5.67;4.17;;;8.50;99.90;;;;;;2061241;28;20203;-67
2024/02/10 00:28:11;;;;;;;6.05;4.40;;;8.60;99.90;;;;;;2062800;28;20179;-67
2024/02/10 00:29:13;;;;;;;5.88;4.40;;;8.50;99.90;;;;;;2056330;28;20183;-67
2024/02/10 00:30:16;;;;;;;4.72;3.80;;;8.40;99.90;;;;;;2060722;28;20207;-67
2024/02/10 00:31:17;;;;;;;7.25;4.55;;;8.40;99.90;;;;;;2061350;28;20179;-67
2024/02/10 00:32:18;;;;;;;5.63;4.83;;;8.40;99.90;;;;;;2061797;28;20704;-67
2024/02/10 00:33:18;;;;;;;4.55;3.83;;;8.40;99.90;;;;;;2062309;28;20186;-67
2024/02/10 00:34:22;;;;;;;5.10;4.27;;;8.40;99.90;;;;;;2063358;28;20194;-66
2024/02/10 00:35:23;;;;;;;4.53;4.03;;;8.40;99.90;;;;;;2063932;28;20261;-66
2024/02/10 00:36:24;;;;;;;5.10;3.70;;;8.40;99.90;;;;;;2062645;28;20226;-66
2024/02/10 00:37:25;;;;;;;4.68;3.83;;;8.30;99.90;;;;;;2061265;28;20238;-66
2024/02/10 00:38:26;;;;;;;5.53;4.37;;;8.30;99.90;;;;;;2070964;28;20225;-67
2024/02/10 00:39:26;;;;;;;4.43;3.50;;;8.30;99.90;;;;;;2071838;28;20225;-67
2024/02/10 00:40:27;;;;;;;7.27;4.00;;;8.30;99.90;;;;;;2061400;28;20714;-67
2024/02/10 00:41:28;;;;;;;3.80;2.97;;;8.30;99.90;;;;;;2062031;28;20237;-67
2024/02/10 00:42:28;;;;;;;3.20;2.90;;;8.30;99.90;;;;;;2062629;28;20317;-67
2024/02/10 00:43:29;;;;;;;3.90;3.43;;;8.20;99.90;;;;;;2064321;28;20910;-67
2024/02/10 00:44:30;;;;;;;3.90;3.53;;;8.20;99.90;;;;;;2063837;28;20714;-67
2024/02/10 00:45:30;;;;;;;3.03;2.57;;;8.20;99.90;;;;;;2061929;28;20245;-67
2024/02/10 00:46:31;;;;;;;3.70;2.90;;;8.20;99.90;;;;;;2055445;28;20238;-67
2024/02/10 00:47:35;;;;;;;3.37;2.67;;;8.30;99.90;;;;;;2047279;28;20594;-67
2024/02/10 00:48:37;;;;;;;2.50;2.30;;;8.30;99.90;;;;;;2062850;28;20263;-67
2024/02/10 00:49:42;;;;;;;2.13;1.90;;;8.30;99.90;;;;;;2062879;28;20230;-67
2024/02/10 00:50:45;;;;;;;2.47;1.70;;;8.40;99.90;;;;;;2060248;28;20607;-67
2024/02/10 00:51:46;;;;;;;2.58;1.75;;;8.40;99.90;;;;;;2061478;28;20237;-67
2024/02/10 00:52:49;;;;;;;1.63;1.50;;;8.40;99.90;;;;;;2061245;28;20243;-67
2024/02/10 00:53:53;;;;;;;2.28;1.50;;;8.50;99.90;;;;;;2061167;28;20291;-67
2024/02/10 00:54:54;;;;;;;1.13;1.02;;;8.50;99.90;;;;;;2063770;28;20221;-67
2024/02/10 00:55:55;;;;;;;2.47;1.30;;;8.50;99.90;;;;;;2062626;28;20233;-67
2024/02/10 00:56:56;;;;;;;1.30;1.20;;;8.40;99.90;;;;;;2060295;28;20264;-67
2024/02/10 00:58:02;;;;;;;0.95;0.80;;;8.40;99.90;;;;;;2061191;28;20240;-68
2024/02/10 00:59:02;;;;;;;1.23;0.80;;;8.30;99.90;;;;;;2054388;28;20291;-66
2024/02/10 01:00:04;;;;;;;1.07;0.97;;;8.30;99.90;;;;;;2055653;28;20209;-66
2024/02/10 01:01:04;;;;;;;0.90;0.90;;;8.20;99.90;;;;;;2063995;28;20236;-66
2024/02/10 01:02:05;;;;;;;1.00;0.90;;;8.10;99.90;;;;;;2063707;28;20237;-66
2024/02/10 01:03:08;;;;;;;0.80;0.80;;;8.10;99.90;;;;;;2060761;28;20647;-66
2024/02/10 01:04:09;;;;;;;1.05;0.77;;;8.10;99.90;;;;;;2060375;28;20187;-66
2024/02/10 01:05:10;;;;;;;2.30;0.70;;;8.10;99.90;;;;;;2063245;28;20179;-66
2024/02/10 01:06:21;;;;;;;0.70;0.70;;;8.10;99.90;;;;;;2060616;28;20183;-66
2024/02/10 01:07:23;;;;;;;1.13;0.70;;;8.10;99.90;;;;;;2058723;28;20231;-66
2024/02/10 01:08:24;;;;;;;0.70;0.70;;;8.10;99.90;;;;;;2058113;28;20257;-66
2024/02/10 01:09:24;;;;;;;0.53;0.53;;;8.00;99.90;;;;;;2069869;28;20225;-66
2024/02/10 01:10:25;;;;;;;0.60;0.60;;;8.00;99.90;;;;;;2063877;28;20600;-66
2024/02/10 01:11:27;;;;;;;1.30;0.60;;;8.00;99.90;;;;;;2064005;28;20226;-66
2024/02/10 01:12:28;;;;;;;1.00;0.60;;;8.00;99.90;;;;;;2063554;28;20468;-66
2024/02/10 01:13:30;;;;;;;0.53;0.50;;;8.00;99.90;;;;;;2061561;28;20228;-66
2024/02/10 01:14:32;;;;;;;0.50;0.50;;;8.00;99.90;;;;;;2061696;28;20226;-66
2024/02/10 01:15:32;;;;;;;0.90;0.60;;;8.00;99.90;;;;;;2061033;28;20228;-66
2024/02/10 01:16:36;;;;;;;0.70;0.70;;;8.00;99.90;;;;;;2062622;28;20744;-66
2024/02/10 01:17:36;;;;;;;0.50;0.50;;;8.10;99.90;;;;;;2062769;28;20288;-66
2024/02/10 01:18:37;;;;;;;0.60;0.60;;;8.10;99.90;;;;;;2060959;28;20226;-66
2024/02/10 01:19:50;;;;;;;0.85;0.70;;;8.10;99.90;;;;;;2060540;28;20303;-66
2024/02/10 01:20:51;;;;;;;0.73;0.73;;;8.00;99.90;;;;;;2062591;28;20234;-66
2024/02/10 01:21:54;;;;;;;0.50;0.50;;;8.00;99.90;;;;;;2063691;28;20222;-66
2024/02/10 01:22:57;;;;;;;0.57;0.57;;;8.00;99.90;;;;;;2061106;28;20593;-67
2024/02/10 01:23:59;;;;;;;0.60;0.60;;;8.00;99.90;;;;;;2055079;28;20222;-66
2024/02/10 01:25:00;;;;;;;0.70;0.70;;;8.00;99.90;;;;;;2058816;28;20230;-66
2024/02/10 01:26:00;;;;;;;1.27;1.10;;;8.00;99.90;;;;;;2062090;28;20330;-66
2024/02/10 01:27:03;;;;;;;0.80;0.80;;;8.00;99.90;;;;;;2061823;28;20250;-66
2024/02/10 01:28:04;;;;;;;1.40;1.00;;;8.00;99.90;;;;;;2060731;28;20188;-66
2024/02/10 01:29:09;;;;;;;1.88;1.10;;;7.90;99.90;;;;;;2063693;28;20179;-66
2024/02/10 01:30:10;;;;;;;1.45;1.20;;;7.90;99.90;;;;;;2061759;28;20179;-66
2024/02/10 01:31:13;;;;;;;1.65;1.30;;;7.90;99.90;;;;;;2062481;28;20659;-66
2024/02/10 01:32:20;;;;;;;1.20;1.10;;;7.90;99.90;;;;;;2062964;28;20642;-66
2024/02/10 01:33:20;;;;;;;1.10;1.00;;;8.00;99.90;;;;;;2060467;28;20236;-66
2024/02/10 01:34:21;;;;;;;1.43;1.20;;;8.00;99.90;;;;;;2060710;28;20269;-66
2024/02/10 01:35:22;;;;;;;1.93;1.30;;;7.90;99.90;;;;;;2061075;28;20229;-67
2024/02/10 01:36:22;;;;;;;1.33;1.10;;;8.10;99.90;;;;;;2062511;28;20226;-67
2024/02/10 01:37:23;;;;;;;1.30;1.20;;;8.20;99.90;;;;;;2053824;28;20750;-66
2024/02/10 01:38:24;;;;;;;1.60;1.50;;;8.20;99.90;;;;;;2054871;28;20314;-66
2024/02/10 01:39:25;;;;;;;1.73;1.57;;;8.20;99.90;;;;;;2061239;28;20503;-68
2024/02/10 01:40:25;;;;;;;2.13;1.70;;;8.20;99.90;;;;;;2063184;28;20264;-66
2024/02/10 01:41:28;;;;;;;2.03;1.23;;;8.10;99.90;;;;;;2063185;28;20226;-66
2024/02/10 01:42:37;;;;;;;1.45;1.02;;;8.10;99.90;;;;;;2061384;28;20340;-66
2024/02/10 01:43:42;;;;;;;1.13;1.00;;;8.00;99.90;;;;;;2062571;28;20710;-66
2024/02/10 01:44:44;;;;;;;1.00;0.80;;;7.90;99.90;;;;;;2059752;28;20238;-67
2024/02/10 01:45:45;;;;;;;1.20;1.10;;;7.90;99.90;;;;;;2059220;28;20241;-67
2024/02/10 01:46:47;;;;;;;1.20;0.90;;;7.80;99.90;;;;;;2059396;28;20236;-66
2024/02/10 01:47:49;;;;;;;0.90;0.90;;;7.80;99.90;;;;;;2061495;28;20230;-66
2024/02/10 01:48:50;;;;;;;1.25;1.02;;;7.90;99.90;;;;;;2054994;28;20789;-67
2024/02/10 01:49:51;;;;;;;1.10;1.00;;;7.80;99.90;;;;;;2059921;28;20230;-66
2024/02/10 01:50:52;;;;;;;0.90;0.90;;;7.90;99.90;;;;;;2059796;28;20319;-67
2024/02/10 01:51:52;;;;;;;0.80;0.80;;;7.90;99.90;;;;;;2053113;28;20310;-67
2024/02/10 01:52:53;;;;;;;1.90;0.70;;;7.90;99.90;;;;;;2062658;28;20237;-67
2024/02/10 01:53:56;;;;;;;0.70;0.70;;;8.00;99.90;;;;;;2054992;28;20580;-66
2024/02/10 01:54:57;;;;;;;0.93;0.93;;;8.10;99.90;;;;;;2038259;28;20368;-66
2024/02/10 01:55:59;;;;;;;1.43;0.80;;;8.10;99.90;;;;;;2055012;28;20258;-67
2024/02/10 01:57:00;;;;;;;0.68;0.68;;;8.10;99.90;;;;;;2062867;28;20241;-67
2024/02/10 01:58:06;;;;;;;0.60;0.60;;;8.10;99.90;;;;;;2054646;28;21219;-66
2024/02/10 01:59:07;;;;;;;0.70;0.70;;;8.10;99.90;;;;;;2047460;28;20754;-66
2024/02/10 02:00:13;;;;;;;0.80;0.80;;;8.10;99.90;;;;;;2043674;28;20204;-66
2024/02/10 02:01:15;;;;;;;0.80;0.77;;;8.20;99.90;;;;;;2061389;28;20210;-66
2024/02/10 02:02:16;;;;;;;0.90;0.90;;;8.20;99.90;;;;;;2060060;28;20234;-67
2024/02/10 02:03:17;;;;;;;0.80;0.80;;;8.20;99.90;;;;;;2052883;28;20286;-66
2024/02/10 02:04:22;;;;;;;1.03;0.93;;;8.20;99.90;;;;;;2047453;28;20671;-67
2024/02/10 02:05:23;;;;;;;0.60;0.60;;;8.20;99.90;;;;;;2062366;28;20305;-67
2024/02/10 02:06:24;;;;;;;1.30;0.70;;;8.20;99.90;;;;;;2059418;28;20230;-66
2024/02/10 02:07:30;;;;;;;0.90;0.70;;;8.20;99.90;;;;;;2059434;28;20242;-66
2024/02/10 02:08:33;;;;;;;0.60;0.60;;;8.20;99.90;;;;;;2055254;28;20223;-66
2024/02/10 02:09:34;;;;;;;0.50;0.50;;;8.20;99.90;;;;;;2060862;28;20791;-66
2024/02/10 02:10:35;;;;;;;0.50;0.50;;;8.20;99.90;;;;;;2061528;28;20299;-66
2024/02/10 02:11:48;;;;;;;0.63;0.60;;;8.20;99.90;;;;;;2062752;28;20316;-67
2024/02/10 02:12:50;;;;;;;0.70;0.70;;;8.30;99.90;;;;;;2061213;28;20811;-67
2024/02/10 02:13:51;;;;;;;0.57;0.57;;;8.20;99.90;;;;;;2050152;28;20230;-67
2024/02/10 02:14:53;;;;;;;0.80;0.80;;;8.20;99.90;;;;;;2057873;28;20230;-67
2024/02/10 02:15:57;;;;;;;0.60;0.60;;;8.30;99.90;;;;;;2062832;28;20237;-67
2024/02/10 02:16:58;;;;;;;1.13;0.90;;;8.20;99.90;;;;;;2061749;28;20242;-66
2024/02/10 02:17:59;;;;;;;0.97;0.90;;;8.20;99.90;;;;;;2059218;28;20237;-67
2024/02/10 02:18:59;;;;;;;0.70;0.70;;;8.20;99.90;;;;;;2061353;28;20336;-67
2024/02/10 02:20:00;;;;;;;1.10;0.80;;;8.10;99.90;;;;;;2061832;28;20319;-67
2024/02/10 02:21:01;;;;;;;0.73;0.60;;;8.10;99.90;;;;;;2062407;28;20319;-66
2024/02/10 02:22:01;;;;;;;0.70;0.70;;;8.00;99.90;;;;;;2054282;28;20780;-65
2024/02/10 02:23:03;;;;;;;0.60;0.60;;;8.10;99.90;;;;;;2045875;28;20195;-65
2024/02/10 02:24:06;;;;;;;0.60;0.60;;;8.00;99.90;;;;;;2051723;28;20230;-66
2024/02/10 02:25:07;;;;;;;0.70;0.70;;;8.00;99.90;;;;;;2060084;28;20540;-66
2024/02/10 02:26:08;;;;;;;0.75;0.75;;;7.90;99.90;;;;;;2061864;28;20641;-66
2024/02/10 02:27:09;;;;;;;0.40;0.40;;;7.90;99.90;;;;;;2059088;28;20211;-66
2024/02/10 02:28:10;;;;;;;0.65;0.65;;;7.90;99.90;;;;;;2050215;28;20278;-66
2024/02/10 02:29:10;;;;;;;0.50;0.50;;;7.90;99.90;;;;;;2056080;28;20749;-66
2024/02/10 02:30:12;;;;;;;0.63;0.63;;;7.80;99.90;;;;;;2061263;28;20182;-67
2024/02/10 02:31:15;;;;;;;0.68;0.68;;;7.80;99.90;;;;;;2061754;28;20190;-67
2024/02/10 02:32:15;;;;;;;0.70;0.70;;;7.80;99.90;;;;;;2062008;28;20183;-67
2024/02/10 02:33:16;;;;;;;0.60;0.60;;;7.90;99.90;;;;;;2060055;28;20537;-67
2024/02/10 02:34:17;;;;;;;0.73;0.70;;;7.80;99.90;;;;;;2058853;28;20188;-67
2024/02/10 02:35:17;;;;;;;0.60;0.60;;;7.90;99.90;;;;;;2059428;28;20183;-67
2024/02/10 02:36:18;;;;;;;0.70;0.70;;;7.90;99.90;;;;;;2061797;28;20621;-66
2024/02/10 02:37:22;;;;;;;0.53;0.50;;;8.00;99.90;;;;;;2061733;28;20253;-67
2024/02/10 02:38:23;;;;;;;1.73;0.75;;;7.90;99.90;;;;;;2061822;28;20252;-67
2024/02/10 02:39:24;;;;;;;2.30;0.80;;;7.90;99.90;;;;;;2055337;28;20230;-66
2024/02/10 02:40:26;;;;;;;0.80;0.70;;;7.90;99.90;;;;;;2052306;28;20472;-67
2024/02/10 02:41:27;;;;;;;1.10;0.80;;;7.80;99.90;;;;;;2048348;28;20308;-67
2024/02/10 02:42:28;;;;;;;0.70;0.70;;;7.80;99.90;;;;;;2058524;28;20233;-67
2024/02/10 02:43:33;;;;;;;0.60;0.60;;;7.80;99.90;;;;;;2055830;28;20223;-67
2024/02/10 02:44:34;;;;;;;0.90;0.65;;;7.90;99.90;;;;;;2058216;28;20316;-67
2024/02/10 02:45:35;;;;;;;1.00;0.90;;;8.00;99.90;;;;;;2059944;28;20611;-67
2024/02/10 02:46:36;;;;;;;1.10;0.60;;;8.00;99.90;;;;;;2061126;28;20238;-67
2024/02/10 02:47:37;;;;;;;0.77;0.77;;;8.10;99.90;;;;;;2061016;28;20237;-67
2024/02/10 02:48:38;;;;;;;0.77;0.70;;;8.10;99.90;;;;;;2061296;28;20322;-67
2024/02/10 02:49:39;;;;;;;1.33;0.80;;;8.10;99.90;;;;;;2060525;28;20237;-67
2024/02/10 02:50:41;;;;;;;1.40;0.90;;;8.10;99.90;;;;;;2061668;28;20336;-67
2024/02/10 02:51:48;;;;;;;1.35;0.90;;;8.20;99.90;;;;;;2057235;28;20226;-67
2024/02/10 02:52:48;;;;;;;0.70;0.70;;;8.20;99.90;;;;;;2058297;28;20235;-67
2024/02/10 02:53:50;;;;;;;0.80;0.80;;;8.10;99.90;;;;;;2061246;28;20233;-67
2024/02/10 02:54:52;;;;;;;1.00;0.80;;;8.10;99.90;;;;;;2057266;28;20245;-67
2024/02/10 02:55:53;;;;;;;2.50;0.90;;;8.10;99.90;;;;;;2056916;28;20224;-67
2024/02/10 02:57:00;;;;;;;0.70;0.70;;;8.10;99.90;;;;;;2058638;28;20246;-67
2024/02/10 02:58:09;;;;;;;0.93;0.75;;;8.10;99.90;;;;;;2059599;28;20315;-67
2024/02/10 02:59:09;;;;;;;1.42;0.60;;;8.10;99.90;;;;;;2064203;28;20233;-67
2024/02/10 03:00:11;;;;;;;1.10;0.80;;;8.10;99.90;;;;;;2068326;28;20269;-67
2024/02/10 03:01:12;;;;;;;0.80;0.80;;;8.10;99.90;;;;;;2058269;28;20245;-67
2024/02/10 03:02:16;;;;;;;0.70;0.70;;;8.00;99.90;;;;;;2057961;28;20190;-67
2024/02/10 03:03:19;;;;;;;0.70;0.68;;;8.00;99.90;;;;;;2061210;28;20186;-66
2024/02/10 03:04:20;;;;;;;1.15;0.80;;;7.90;99.90;;;;;;2057612;28;20220;-66
2024/02/10 03:05:20;;;;;;;0.70;0.70;;;7.90;99.90;;;;;;2059574;28;20944;-67
2024/02/10 03:06:21;;;;;;;0.80;0.63;;;8.00;99.90;;;;;;2059563;28;20242;-66
2024/02/10 03:07:22;;;;;;;0.60;0.60;;;7.90;99.90;;;;;;2059961;28;20238;-66
2024/02/10 03:08:23;;;;;;;2.53;0.70;;;7.90;99.90;;;;;;2061615;28;20241;-66
2024/02/10 03:09:24;;;;;;;0.80;0.80;;;7.90;99.90;;;;;;2061281;28;20242;-66
2024/02/10 03:10:24;;;;;;;0.60;0.60;;;7.90;99.90;;;;;;2059094;28;20250;-66
2024/02/10 03:11:26;;;;;;;0.73;0.67;;;7.90;99.90;;;;;;2059545;28;20287;-66
2024/02/10 03:12:26;;;;;;;1.30;0.70;;;7.90;99.90;;;;;;2061358;28;20233;-65
2024/02/10 03:13:27;;;;;;;1.83;1.00;;;7.90;99.90;;;;;;2057009;28;20752;-66
2024/02/10 03:14:28;;;;;;;0.90;0.90;;;7.90;99.90;;;;;;2061202;28;20238;-66
2024/02/10 03:15:37;;;;;;;0.70;0.60;;;7.80;99.90;;;;;;2061806;28;20218;-66
2024/02/10 03:16:38;;;;;;;1.65;0.90;;;7.90;99.90;;;;;;2058611;28;20229;-66
2024/02/10 03:17:40;;;;;;;1.20;0.90;;;7.90;99.90;;;;;;2059435;28;20245;-66
2024/02/10 03:18:47;;;;;;;1.00;0.70;;;7.90;99.90;;;;;;2061669;28;20316;-66
2024/02/10 03:19:48;;;;;;;1.52;0.98;;;7.80;99.90;;;;;;2048280;28;20224;-66
2024/02/10 03:20:49;;;;;;;0.50;0.50;;;7.90;99.90;;;;;;2062096;28;20295;-66
2024/02/10 03:21:49;;;;;;;1.00;0.77;;;7.80;99.90;;;;;;2061255;28;20742;-66
2024/02/10 03:23:02;;;;;;;0.80;0.80;;;7.90;99.90;;;;;;2060013;28;20230;-66
2024/02/10 03:24:06;;;;;;;1.80;0.70;;;7.90;99.90;;;;;;2060767;28;20825;-65
2024/02/10 03:25:07;;;;;;;0.70;0.50;;;7.80;99.90;;;;;;2061108;28;20179;-65
2024/02/10 03:26:07;;;;;;;0.77;0.70;;;7.90;99.90;;;;;;2061680;28;20227;-66
2024/02/10 03:27:08;;;;;;;0.70;0.70;;;7.90;99.90;;;;;;2058326;28;20507;-66
2024/02/10 03:28:09;;;;;;;1.20;0.60;;;7.90;99.90;;;;;;2050890;28;20848;-66
2024/02/10 03:29:10;;;;;;;0.50;0.50;;;7.80;99.90;;;;;;2052685;28;20203;-66
2024/02/10 03:30:13;;;;;;;1.43;0.70;;;7.80;99.90;;;;;;2061019;28;20198;-66
2024/02/10 03:31:14;;;;;;;1.08;0.60;;;7.90;99.90;;;;;;2061514;28;20188;-66
2024/02/10 03:32:14;;;;;;;2.10;0.70;;;7.80;99.90;;;;;;2051376;28;20706;-66
2024/02/10 03:33:15;;;;;;;1.73;0.80;;;7.80;99.90;;;;;;2052008;28;20258;-66
2024/02/10 03:34:16;;;;;;;1.23;0.50;;;7.70;99.90;;;;;;2056987;28;20262;-67
2024/02/10 03:35:17;;;;;;;0.60;0.60;;;7.60;99.90;;;;;;2060789;28;20241;-66
2024/02/10 03:36:17;;;;;;;1.20;0.60;;;7.60;99.90;;;;;;2059999;28;20283;-66
2024/02/10 03:37:18;;;;;;;0.70;0.70;;;7.50;99.90;;;;;;2055050;28;20206;-66
2024/02/10 03:38:20;;;;;;;0.63;0.63;;;7.40;99.90;;;;;;2057967;28;20183;-66
2024/02/10 03:39:20;;;;;;;0.70;0.60;;;7.50;99.90;;;;;;2058762;28;20404;-67
2024/02/10 03:40:22;;;;;;;1.00;0.90;;;7.50;99.90;;;;;;2059411;28;20261;-66
2024/02/10 03:41:22;;;;;;;0.93;0.90;;;7.40;99.90;;;;;;2060701;28;20226;-67
2024/02/10 03:42:24;;;;;;;1.10;0.90;;;7.50;99.90;;;;;;2058437;28;20691;-66
2024/02/10 03:43:29;;;;;;;1.10;1.00;;;7.60;99.90;;;;;;2059971;28;20639;-67
2024/02/10 03:44:35;;;;;;;2.35;0.80;;;7.60;99.90;;;;;;2060040;28;20242;-67
2024/02/10 03:45:36;;;;;;;1.45;0.98;;;7.70;99.90;;;;;;2059946;28;20320;-67
2024/02/10 03:46:37;;;;;;;0.60;0.60;;;7.70;99.90;;;;;;2060360;28;20289;-66
2024/02/10 03:48:03;;;;;;;1.20;0.83;;;7.70;99.90;;;;;;2060863;28;20238;-66
2024/02/10 03:49:04;;;;;;;1.23;0.70;;;7.80;99.90;;;;;;2059420;28;20462;-66
2024/02/10 03:50:05;;;;;;;0.73;0.70;;;7.80;99.90;;;;;;2059896;28;20681;-66
2024/02/10 03:51:06;;;;;;;0.90;0.75;;;7.80;99.90;;;;;;2059427;28;20221;-66
2024/02/10 03:52:07;;;;;;;0.60;0.60;;;7.80;99.90;;;;;;2060693;28;20205;-66
2024/02/10 03:53:07;;;;;;;2.07;0.77;;;7.80;99.90;;;;;;2060387;28;20272;-67
2024/02/10 03:54:09;;;;;;;0.60;0.60;;;7.90;99.90;;;;;;2059826;28;20268;-66
2024/02/10 03:55:10;;;;;;;0.93;0.80;;;7.90;99.90;;;;;;2059802;28;20618;-66
2024/02/10 03:56:11;;;;;;;0.60;0.60;;;7.80;99.90;;;;;;2059043;28;20221;-66
2024/02/10 03:57:11;;;;;;;1.10;0.90;;;7.80;99.90;;;;;;2060641;28;20209;-67
2024/02/10 03:58:16;;;;;;;1.67;0.90;;;7.80;99.90;;;;;;2060251;28;20261;-66
2024/02/10 03:59:17;;;;;;;0.98;0.80;;;7.80;99.90;;;;;;2056298;28;20183;-67
2024/02/10 04:00:20;;;;;;;0.60;0.60;;;7.70;99.90;;;;;;2059831;28;20182;-67
2024/02/10 04:01:21;;;;;;;0.60;0.60;;;7.60;99.90;;;;;;2059521;28;20424;-67
2024/02/10 04:02:21;;;;;;;0.70;0.70;;;7.70;99.90;;;;;;2059983;28;20577;-67
2024/02/10 04:03:27;;;;;;;1.20;0.90;;;7.70;99.90;;;;;;2060538;28;20238;-67
2024/02/10 04:04:29;;;;;;;2.13;1.00;;;7.70;99.90;;;;;;2059529;28;20769;-67
2024/02/10 04:05:34;;;;;;;1.77;0.80;;;7.80;99.90;;;;;;2058662;28;20238;-66
2024/02/10 04:06:35;;;;;;;2.17;0.93;;;7.70;99.90;;;;;;2058333;28;20229;-66
2024/02/10 04:07:36;;;;;;;2.03;1.10;;;7.70;99.90;;;;;;2059979;28;20234;-66
2024/02/10 04:08:37;;;;;;;1.17;1.07;;;7.70;99.90;;;;;;2060811;28;20234;-66
2024/02/10 04:09:38;;;;;;;1.63;1.10;;;7.60;99.90;;;;;;2062086;28;20348;-66
2024/02/10 04:10:40;;;;;;;1.30;1.20;;;7.50;99.90;;;;;;2058747;28;20222;-66
2024/02/10 04:11:41;;;;;;;1.23;1.13;;;7.50;99.90;;;;;;2059767;28;20244;-66
2024/02/10 04:12:42;;;;;;;1.50;1.30;;;7.50;99.90;;;;;;2060164;28;20253;-66
2024/02/10 04:13:44;;;;;;;2.05;1.25;;;7.40;99.90;;;;;;2060913;28;20234;-66
2024/02/10 04:14:45;;;;;;;1.35;1.20;;;7.40;99.90;;;;;;2058340;28;20226;-66
2024/02/10 04:15:45;;;;;;;1.13;1.03;;;7.40;99.90;;;;;;2058754;28;20294;-66
2024/02/10 04:16:52;;;;;;;1.43;0.87;;;7.40;99.90;;;;;;2059623;28;20262;-67
2024/02/10 04:17:53;;;;;;;1.55;0.90;;;7.50;99.90;;;;;;2060829;28;20257;-67
2024/02/10 04:18:53;;;;;;;2.28;1.67;;;7.40;99.90;;;;;;2061213;28;20230;-66
2024/02/10 04:19:58;;;;;;;2.20;1.57;;;7.40;99.90;;;;;;2062424;28;20264;-67
2024/02/10 04:21:01;;;;;;;2.03;1.70;;;7.40;99.90;;;;;;2060768;28;20236;-66
2024/02/10 04:22:03;;;;;;;2.33;1.77;;;7.40;99.90;;;;;;2058000;28;20259;-66
2024/02/10 04:23:05;;;;;;;3.53;2.30;;;7.30;99.90;;;;;;2054501;28;20610;-66
2024/02/10 04:24:06;;;;;;;3.50;2.03;;;7.40;99.90;;;;;;2061502;28;20193;-67
2024/02/10 04:25:10;;;;;;;4.13;1.70;;;7.40;99.90;;;;;;2062363;28;20182;-67
2024/02/10 04:26:10;;;;;;;2.78;2.40;;;7.40;99.90;;;;;;2060629;28;20202;-66
2024/02/10 04:27:11;;;;;;;2.27;1.40;;;7.50;99.90;;;;;;2062426;28;20667;-66
2024/02/10 04:28:12;;;;;;;1.73;1.60;;;7.50;99.90;;;;;;2060597;28;20177;-66
2024/02/10 04:29:14;;;;;;;2.83;1.43;;;7.40;99.90;;;;;;2062876;28;20546;-66
2024/02/10 04:30:14;;;;;;;2.60;1.45;;;7.50;99.90;;;;;;2062740;28;20193;-67
2024/02/10 04:31:15;;;;;;;2.13;1.90;;;7.50;99.90;;;;;;2056152;28;20273;-66
2024/02/10 04:32:16;;;;;;;4.33;2.17;;;7.50;99.90;;;;;;2057008;28;20198;-66
2024/02/10 04:33:17;;;;;;;2.13;1.93;;;7.50;99.90;;;;;;2058829;28;20265;-66
2024/02/10 04:34:18;;;;;;;2.42;1.88;;;7.50;99.90;;;;;;2061097;28;20560;-67
2024/02/10 04:35:19;;;;;;;2.17;1.67;;;7.60;99.90;;;;;;2063460;28;20213;-67
2024/02/10 04:36:22;;;;;;;2.45;1.90;;;7.60;99.90;;;;;;2063213;28;20393;-66
2024/02/10 04:37:23;;;;;;;1.60;1.50;;;7.60;99.90;;;;;;2061065;28;20234;-66
2024/02/10 04:38:23;;;;;;;3.50;1.57;;;7.50;99.90;;;;;;2062077;28;20232;-66
2024/02/10 04:39:24;;;;;;;2.47;2.00;;;7.50;99.90;;;;;;2062964;28;20721;-66
2024/02/10 04:40:25;;;;;;;3.80;1.90;;;7.50;99.90;;;;;;2064420;28;20230;-66
2024/02/10 04:41:26;;;;;;;2.47;2.20;;;7.60;99.90;;;;;;2070825;28;20222;-66
2024/02/10 04:42:26;;;;;;;3.37;2.20;;;7.60;99.90;;;;;;2067586;28;20218;-67
2024/02/10 04:43:27;;;;;;;2.83;2.30;;;7.60;99.90;;;;;;2061424;28;20576;-66
2024/02/10 04:44:28;;;;;;;3.97;2.70;;;7.60;99.90;;;;;;2059770;28;20233;-66
2024/02/10 04:45:31;;;;;;;2.70;2.13;;;7.70;99.90;;;;;;2061951;28;20234;-67
2024/02/10 04:46:32;;;;;;;4.05;2.70;;;7.70;99.90;;;;;;2062785;28;20221;-67
2024/02/10 04:47:34;;;;;;;3.57;2.90;;;7.70;99.90;;;;;;2059806;28;20281;-67
2024/02/10 04:48:35;;;;;;;4.38;2.83;;;7.70;99.90;;;;;;2060183;28;20232;-66
2024/02/10 04:49:37;;;;;;;5.33;3.53;;;7.70;99.90;;;;;;2061103;28;20597;-66
2024/02/10 04:50:38;;;;;;;3.25;2.92;;;7.70;99.90;;;;;;2062739;28;20939;-66
2024/02/10 04:51:43;;;;;;;4.63;3.30;;;7.60;99.90;;;;;;2062581;28;20242;-66
2024/02/10 04:52:43;;;;;;;4.80;3.00;;;7.70;99.90;;;;;;2062052;28;20745;-67
2024/02/10 04:53:45;;;;;;;4.10;3.00;;;7.60;99.90;;;;;;2059898;28;20226;-67
2024/02/10 04:54:45;;;;;;;3.50;2.70;;;7.50;99.90;;;;;;2056282;28;20288;-66
2024/02/10 04:55:46;;;;;;;3.30;2.53;;;7.50;99.90;;;;;;2063397;28;20230;-66
2024/02/10 04:56:48;;;;;;;3.50;2.63;;;7.50;99.90;;;;;;2061847;28;20725;-66
2024/02/10 04:57:52;;;;;;;5.03;3.40;;;7.50;99.90;;;;;;2061112;28;20467;-66
2024/02/10 04:58:53;;;;;;;3.67;2.72;;;7.60;99.90;;;;;;2058791;28;20349;-67
2024/02/10 04:59:55;;;;;;;3.57;2.80;;;7.60;99.90;;;;;;2051450;28;20936;-67
2024/02/10 05:00:55;;;;;;;3.03;2.33;;;7.50;99.90;;;;;;2060342;28;20230;-67
2024/02/10 05:01:56;;;;;;;5.53;2.90;;;7.50;99.90;;;;;;2062532;28;20294;-67
2024/02/10 05:02:57;;;;;;;4.07;2.67;;;7.50;99.90;;;;;;2060837;28;20222;-66
2024/02/10 05:03:58;;;;;;;4.40;2.77;;;7.50;99.90;;;;;;2059148;28;20252;-66
2024/02/10 05:04:58;;;;;;;3.83;2.57;;;7.40;99.90;;;;;;2059240;28;20238;-66
2024/02/10 05:05:59;;;;;;;3.20;2.53;;;7.50;99.90;;;;;;2060535;28;20260;-66
2024/02/10 05:07:00;;;;;;;3.33;2.60;;;7.50;99.90;;;;;;2071101;28;20229;-66
2024/02/10 05:08:00;;;;;;;6.40;2.90;;;7.40;99.90;;;;;;2065997;28;20229;-66
2024/02/10 05:09:01;;;;;;;3.77;2.87;;;7.50;99.90;;;;;;2058473;28;20268;-66
2024/02/10 05:10:02;;;;;;;3.50;2.53;;;7.50;99.90;;;;;;2059964;28;20194;-66
2024/02/10 05:11:02;;;;;;;3.13;2.43;;;7.50;99.90;;;;;;2061201;28;20186;-66
2024/02/10 05:12:04;;;;;;;4.83;2.87;;;7.50;99.90;;;;;;2061259;28;20201;-66
2024/02/10 05:13:05;;;;;;;4.47;2.58;;;7.50;99.90;;;;;;2061846;28;20182;-66
2024/02/10 05:14:08;;;;;;;2.10;1.80;;;7.40;99.90;;;;;;2060096;28;20183;-67
2024/02/10 05:15:09;;;;;;;2.85;2.33;;;7.50;99.90;;;;;;2059781;28;20605;-67
2024/02/10 05:16:10;;;;;;;3.77;2.40;;;7.50;99.90;;;;;;2060363;28;20203;-66
2024/02/10 05:17:13;;;;;;;5.07;3.08;;;7.60;99.90;;;;;;2058351;28;20222;-67
2024/02/10 05:18:14;;;;;;;4.03;2.80;;;7.50;99.90;;;;;;2062635;28;20190;-66
2024/02/10 05:19:16;;;;;;;3.27;2.00;;;7.40;99.90;;;;;;2061442;28;20202;-66
2024/02/10 05:20:22;;;;;;;3.60;2.38;;;7.30;99.90;;;;;;2059124;28;20190;-68
2024/02/10 05:21:28;;;;;;;4.57;2.28;;;7.20;99.90;;;;;;2053259;28;20239;-66
2024/02/10 05:22:29;;;;;;;4.07;2.60;;;7.20;99.90;;;;;;2053346;28;20234;-66
2024/02/10 05:23:29;;;;;;;3.50;2.42;;;7.20;99.90;;;;;;2062134;28;20230;-66
2024/02/10 05:24:32;;;;;;;3.37;2.40;;;7.30;99.90;;;;;;2068347;28;20288;-66
2024/02/10 05:25:34;;;;;;;3.25;2.47;;;7.30;99.90;;;;;;2067733;28;20233;-66
2024/02/10 05:26:36;;;;;;;3.03;2.30;;;7.30;99.90;;;;;;2061249;28;20712;-66